Time;durP1;ratioP1;P1;durP2;ratioP2;P2;SDS_P1;SDS_P2;PMS_P1;PMS_P2;Temp;Humidity;BMP_temperature;BMP_pressure;BME280_temperature;BME280_humidity;BME280_pressure;Samples;Min_cycle;Max_cycle;Signal;HPM_P1;HPM_P2
2024/03/19 00:01:42;;;;;;;;;;;;;;;10.04;47.42;101224.25;4959609;27;99309;-71
2024/03/19 00:04:08;;;;;;;;;;;;;;;10.03;47.73;101224.50;4984293;27;98167;-74
2024/03/19 00:06:34;;;;;;;;;;;;;;;10.01;47.36;101221.22;4979577;27;98041;-73
2024/03/19 00:09:00;;;;;;;;;;;;;;;9.99;47.67;101232.25;4995613;27;98362;-73
2024/03/19 00:11:26;;;;;;;;;;;;;;;9.98;47.38;101227.09;4981270;27;129784;-71
2024/03/19 00:13:52;;;;;;;;;;;;;;;9.97;47.10;101228.97;4977908;27;98415;-74
2024/03/19 00:16:19;;;;;;;;;;;;;;;9.96;47.40;101234.63;4968589;27;118415;-73
2024/03/19 00:18:45;;;;;;;;;;;;;;;9.93;47.30;101230.53;4983681;27;98540;-71
2024/03/19 00:21:10;;;;;;;;;;;;;;;9.93;47.19;101235.09;4996700;27;125532;-73
2024/03/19 00:23:37;;;;;;;;;;;;;;;9.90;47.30;101236.41;5001379;27;98025;-71
2024/03/19 00:26:05;;;;;;;;;;;;;;;9.89;47.22;101237.47;5003428;27;98911;-71
2024/03/19 00:28:31;;;;;;;;;;;;;;;9.87;47.40;101231.53;4999981;27;98551;-71
2024/03/19 00:30:59;;;;;;;;;;;;;;;9.86;47.24;101235.25;4981845;27;98116;-71
2024/03/19 00:33:28;;;;;;;;;;;;;;;9.84;47.37;101232.00;5003028;27;98020;-71
2024/03/19 00:35:55;;;;;;;;;;;;;;;9.81;47.53;101225.22;4967752;27;98250;-71
2024/03/19 00:38:22;;;;;;;;;;;;;;;9.81;47.44;101221.72;4967675;27;99713;-71
2024/03/19 00:40:48;;;;;;;;;;;;;;;9.79;47.27;101226.53;4970144;27;98729;-71
2024/03/19 00:43:14;;;;;;;;;;;;;;;9.77;47.16;101226.75;4965689;27;98065;-72
2024/03/19 00:45:40;;;;;;;;;;;;;;;9.76;47.56;101230.53;4965476;27;129546;-73
2024/03/19 00:48:06;;;;;;;;;;;;;;;9.74;47.43;101231.81;4981081;27;121287;-71
2024/03/19 00:50:32;;;;;;;;;;;;;;;9.73;47.46;101231.00;4999131;27;97807;-72
2024/03/19 00:52:58;;;;;;;;;;;;;;;9.71;47.84;101232.34;4971062;27;121079;-73
2024/03/19 00:55:25;;;;;;;;;;;;;;;9.69;47.19;101229.88;4984909;27;113703;-71
2024/03/19 00:57:51;;;;;;;;;;;;;;;9.68;47.38;101228.25;4976595;27;97917;-73
2024/03/19 01:00:18;;;;;;;;;;;;;;;9.67;47.25;101225.75;4977788;27;100393;-71
2024/03/19 01:02:44;;;;;;;;;;;;;;;9.65;47.03;101220.63;4999333;27;98143;-71
2024/03/19 01:05:11;;;;;;;;;;;;;;;9.64;47.15;101227.09;5000523;27;98247;-71
2024/03/19 01:07:41;;;;;;;;;;;;;;;9.63;47.57;101225.47;4984574;27;100038;-73
2024/03/19 01:10:10;;;;;;;;;;;;;;;9.62;46.79;101217.63;4985627;27;98291;-71
2024/03/19 01:12:37;;;;;;;;;;;;;;;9.59;47.20;101219.75;4981802;27;98318;-71
2024/03/19 01:15:03;;;;;;;;;;;;;;;9.58;47.24;101218.09;4981164;27;104997;-73
2024/03/19 01:17:29;;;;;;;;;;;;;;;9.57;47.24;101211.09;4977625;27;98017;-71
2024/03/19 01:19:56;;;;;;;;;;;;;;;9.56;47.27;101217.53;4980427;27;97927;-71
2024/03/19 01:22:22;;;;;;;;;;;;;;;9.55;47.87;101212.41;5001820;27;98354;-71
2024/03/19 01:24:48;;;;;;;;;;;;;;;9.53;47.51;101209.94;4981405;27;98387;-73
2024/03/19 01:27:14;;;;;;;;;;;;;;;9.52;47.25;101215.56;4980397;27;99976;-74
2024/03/19 01:29:40;;;;;;;;;;;;;;;9.51;47.46;101217.44;4971102;27;127813;-73
2024/03/19 01:32:06;;;;;;;;;;;;;;;9.48;47.98;101217.94;4978195;27;98067;-73
2024/03/19 01:34:32;;;;;;;;;;;;;;;9.48;47.63;101215.25;4977493;27;108025;-71
2024/03/19 01:36:58;;;;;;;;;;;;;;;9.45;47.46;101217.59;4975343;27;97886;-71
2024/03/19 01:39:24;;;;;;;;;;;;;;;9.46;47.30;101219.22;4984708;27;99217;-73
2024/03/19 01:41:53;;;;;;;;;;;;;;;9.45;47.16;101223.78;4973677;27;122435;-73
2024/03/19 01:44:20;;;;;;;;;;;;;;;9.43;47.63;101217.84;4960904;27;98655;-71
2024/03/19 01:46:46;;;;;;;;;;;;;;;9.43;46.89;101222.38;4981756;27;99149;-73
2024/03/19 01:49:12;;;;;;;;;;;;;;;9.40;47.51;101220.19;4985042;27;98399;-71
2024/03/19 01:51:39;;;;;;;;;;;;;;;9.40;46.79;101214.81;4979252;27;98507;-71
2024/03/19 01:54:06;;;;;;;;;;;;;;;9.38;47.54;101214.22;4972061;27;98037;-71
2024/03/19 01:56:32;;;;;;;;;;;;;;;9.36;47.54;101211.78;4979616;27;105476;-71
2024/03/19 01:59:01;;;;;;;;;;;;;;;9.35;47.29;101210.13;4979100;27;99836;-70
2024/03/19 02:01:27;;;;;;;;;;;;;;;9.33;47.57;101221.16;5002651;27;98137;-73
2024/03/19 02:03:53;;;;;;;;;;;;;;;9.31;47.34;101204.44;4983855;27;98604;-71
2024/03/19 02:06:20;;;;;;;;;;;;;;;9.31;47.17;101211.66;4963228;27;124801;-71
2024/03/19 02:09:06;;;;;;;;;;;;;;;9.29;47.14;101208.41;4985155;27;102860;-71
2024/03/19 02:11:32;;;;;;;;;;;;;;;9.27;47.55;101207.84;4976387;27;98245;-71
2024/03/19 02:13:59;;;;;;;;;;;;;;;9.27;47.44;101208.66;4982766;27;99399;-73
2024/03/19 02:16:25;;;;;;;;;;;;;;;9.25;47.35;101210.78;4979416;27;98246;-73
2024/03/19 02:18:58;;;;;;;;;;;;;;;9.25;47.73;101223.41;4972159;27;99954;-73
2024/03/19 02:21:27;;;;;;;;;;;;;;;9.24;47.01;101216.41;4955924;27;98489;-73
2024/03/19 02:24:00;;;;;;;;;;;;;;;9.21;46.97;101217.69;4979602;27;98102;-71
2024/03/19 02:26:26;;;;;;;;;;;;;;;9.20;47.21;101221.44;4998135;27;98981;-71
2024/03/19 02:28:53;;;;;;;;;;;;;;;9.20;47.17;101223.31;4966061;27;97943;-73
2024/03/19 02:31:19;;;;;;;;;;;;;;;9.19;47.43;101213.59;4966855;27;98312;-71
2024/03/19 02:33:45;;;;;;;;;;;;;;;9.18;47.86;101214.66;4962063;27;98361;-71
2024/03/19 02:36:11;;;;;;;;;;;;;;;9.16;47.05;101212.22;4966552;27;98351;-70
2024/03/19 02:38:37;;;;;;;;;;;;;;;9.16;47.58;101208.72;4959061;27;127996;-73
2024/03/19 02:41:03;;;;;;;;;;;;;;;9.15;47.33;101212.44;4947973;27;102351;-73
2024/03/19 02:43:30;;;;;;;;;;;;;;;9.13;47.55;101211.88;4983290;27;98574;-71
2024/03/19 02:45:56;;;;;;;;;;;;;;;9.12;47.48;101207.53;4958165;28;98742;-73
2024/03/19 02:48:22;;;;;;;;;;;;;;;9.09;47.06;101204.28;4980021;27;128206;-73
2024/03/19 02:50:48;;;;;;;;;;;;;;;9.09;47.88;101211.53;4964285;27;98188;-71
2024/03/19 02:53:14;;;;;;;;;;;;;;;9.07;47.44;101217.13;4944095;27;102339;-71
2024/03/19 02:55:40;;;;;;;;;;;;;;;9.07;46.83;101221.72;4948748;27;129813;-73
2024/03/19 02:58:06;;;;;;;;;;;;;;;9.05;47.86;101215.75;4953027;27;99161;-71
2024/03/19 03:00:32;;;;;;;;;;;;;;;9.05;47.13;101224.66;4966120;27;98654;-73
2024/03/19 03:02:59;;;;;;;;;;;;;;;9.04;47.53;101223.03;4957874;27;108883;-73
2024/03/19 03:05:25;;;;;;;;;;;;;;;9.02;47.44;101222.44;4977140;27;98224;-71
2024/03/19 03:07:51;;;;;;;;;;;;;;;9.01;47.24;101218.13;4974103;27;127622;-71
2024/03/19 03:10:17;;;;;;;;;;;;;;;9.00;46.84;101221.88;4965403;27;124426;-71
2024/03/19 03:12:43;;;;;;;;;;;;;;;8.98;47.61;101223.97;4961808;27;98042;-74
2024/03/19 03:15:09;;;;;;;;;;;;;;;8.98;47.25;101231.22;4940769;28;99523;-73
2024/03/19 03:17:37;;;;;;;;;;;;;;;8.98;47.35;101231.22;4963658;27;97966;-71
2024/03/19 03:20:05;;;;;;;;;;;;;;;8.96;47.23;101228.78;4992727;27;98120;-74
2024/03/19 03:22:31;;;;;;;;;;;;;;;8.95;47.22;101229.81;4962527;27;98047;-71
2024/03/19 03:24:57;;;;;;;;;;;;;;;8.94;47.13;101230.06;5000203;27;98961;-71
2024/03/19 03:27:24;;;;;;;;;;;;;;;8.93;47.41;101231.13;4978419;27;111583;-73
2024/03/19 03:29:50;;;;;;;;;;;;;;;8.91;47.18;101230.53;4963102;27;98448;-73
2024/03/19 03:32:16;;;;;;;;;;;;;;;8.90;46.97;101229.72;4961611;27;97918;-71
2024/03/19 03:34:42;;;;;;;;;;;;;;;8.89;47.54;101233.47;4970036;27;98919;-71
2024/03/19 03:37:08;;;;;;;;;;;;;;;8.88;47.34;101231.81;4983504;27;98678;-71
2024/03/19 03:39:34;;;;;;;;;;;;;;;8.85;47.17;101226.94;4987147;27;97921;-74
2024/03/19 03:42:02;;;;;;;;;;;;;;;8.85;47.35;101230.44;4970895;27;98313;-71
2024/03/19 03:44:29;;;;;;;;;;;;;;;8.83;47.16;101229.84;4966533;27;98487;-73
2024/03/19 03:46:55;;;;;;;;;;;;;;;8.81;47.65;101233.84;4958847;27;99442;-74
2024/03/19 03:49:21;;;;;;;;;;;;;;;8.80;46.90;101232.19;4996681;27;121944;-73
2024/03/19 03:51:47;;;;;;;;;;;;;;;8.79;47.22;101241.31;4986563;27;102235;-73
2024/03/19 03:54:13;;;;;;;;;;;;;;;8.78;47.76;101242.38;4986411;27;127568;-71
2024/03/19 03:56:39;;;;;;;;;;;;;;;8.76;47.39;101239.09;4981811;27;111205;-71
2024/03/19 03:59:05;;;;;;;;;;;;;;;8.75;46.99;101235.56;4996280;27;98139;-73
2024/03/19 04:01:31;;;;;;;;;;;;;;;8.73;47.06;101234.19;4982344;27;98502;-74
2024/03/19 04:03:57;;;;;;;;;;;;;;;8.70;47.02;101237.34;4977544;27;98080;-71
2024/03/19 04:06:23;;;;;;;;;;;;;;;8.66;47.53;101239.69;4981893;27;128207;-71
2024/03/19 04:08:48;;;;;;;;;;;;;;;8.64;47.64;101238.28;4983098;27;98162;-71
2024/03/19 04:11:14;;;;;;;;;;;;;;;8.59;47.25;101237.13;4987554;27;128627;-71
2024/03/19 04:13:41;;;;;;;;;;;;;;;8.56;47.50;101239.47;4979548;27;98215;-71
2024/03/19 04:16:07;;;;;;;;;;;;;;;8.54;46.99;101233.53;4984857;27;98531;-73
2024/03/19 04:18:33;;;;;;;;;;;;;;;8.51;47.08;101240.16;4972688;27;98081;-71
2024/03/19 04:20:59;;;;;;;;;;;;;;;8.49;47.26;101242.28;4994913;27;98380;-73
2024/03/19 04:23:25;;;;;;;;;;;;;;;8.47;47.55;101244.38;4964168;27;98114;-71
2024/03/19 04:25:51;;;;;;;;;;;;;;;8.45;47.59;101241.13;4993875;27;98545;-74
2024/03/19 04:28:18;;;;;;;;;;;;;;;8.42;47.18;101246.97;4958039;27;98296;-71
2024/03/19 04:30:44;;;;;;;;;;;;;;;8.40;46.86;101240.97;4975197;27;98155;-71
2024/03/19 04:33:11;;;;;;;;;;;;;;;8.38;47.41;101251.16;4975369;27;98351;-73
2024/03/19 04:35:37;;;;;;;;;;;;;;;8.36;47.45;101239.78;4960884;27;99712;-73
2024/03/19 04:38:04;;;;;;;;;;;;;;;8.35;47.34;101238.16;4980567;27;98190;-71
2024/03/19 04:40:30;;;;;;;;;;;;;;;8.32;47.36;101244.81;4971390;27;98682;-71
2024/03/19 04:42:56;;;;;;;;;;;;;;;8.30;47.58;101246.94;4974010;27;98672;-71
2024/03/19 04:45:23;;;;;;;;;;;;;;;8.29;47.71;101247.13;4976611;27;98221;-72
2024/03/19 04:47:48;;;;;;;;;;;;;;;8.27;47.23;101244.69;4967568;27;98416;-73
2024/03/19 04:50:15;;;;;;;;;;;;;;;8.26;47.51;101235.00;4977118;27;98088;-74
2024/03/19 04:52:41;;;;;;;;;;;;;;;8.25;47.69;101241.44;4991464;27;97983;-72
2024/03/19 04:55:07;;;;;;;;;;;;;;;8.23;47.40;101243.53;4974665;27;98047;-75
2024/03/19 04:57:34;;;;;;;;;;;;;;;8.22;47.17;101247.28;4965516;27;105720;-71
2024/03/19 05:00:00;;;;;;;;;;;;;;;8.23;47.44;101261.53;4960647;27;99193;-71
2024/03/19 05:02:26;;;;;;;;;;;;;;;8.21;47.10;101247.50;4964916;27;98239;-73
2024/03/19 05:04:52;;;;;;;;;;;;;;;8.20;47.17;101246.69;4959721;27;98053;-71
2024/03/19 05:07:18;;;;;;;;;;;;;;;8.20;47.77;101259.28;4964913;27;99484;-71
2024/03/19 05:09:44;;;;;;;;;;;;;;;8.20;47.50;101261.97;4967472;27;99734;-71
2024/03/19 05:12:10;;;;;;;;;;;;;;;8.19;47.34;101260.34;4982043;27;111119;-70
2024/03/19 05:14:36;;;;;;;;;;;;;;;8.19;47.20;101257.66;4983544;27;128549;-71
2024/03/19 05:17:03;;;;;;;;;;;;;;;8.19;47.47;101257.66;4985210;27;121591;-73
2024/03/19 05:19:29;;;;;;;;;;;;;;;8.19;47.02;101266.53;4963711;27;100013;-71
2024/03/19 05:21:55;;;;;;;;;;;;;;;8.20;47.32;101275.41;4982038;27;98188;-73
2024/03/19 05:24:21;;;;;;;;;;;;;;;8.20;47.52;101264.66;4982724;27;98230;-73
2024/03/19 05:26:47;;;;;;;;;;;;;;;8.19;47.02;101271.91;4966695;27;108339;-71
2024/03/19 05:29:13;;;;;;;;;;;;;;;8.20;47.06;101261.97;4963787;27;125940;-73
2024/03/19 05:31:39;;;;;;;;;;;;;;;8.21;47.29;101268.97;4960931;27;98057;-73
2024/03/19 05:34:05;;;;;;;;;;;;;;;8.23;47.29;101274.94;4981613;27;109249;-71
2024/03/19 05:36:31;;;;;;;;;;;;;;;8.23;47.55;101273.06;4977412;27;98998;-71
2024/03/19 05:38:57;;;;;;;;;;;;;;;8.25;47.14;101278.19;4958506;27;111846;-73
2024/03/19 05:41:23;;;;;;;;;;;;;;;8.27;47.41;101281.50;4972879;27;97965;-71
2024/03/19 05:43:49;;;;;;;;;;;;;;;8.29;47.28;101268.63;4966739;27;98692;-73
2024/03/19 05:46:15;;;;;;;;;;;;;;;8.31;46.73;101286.16;4961755;27;98023;-73
2024/03/19 05:48:42;;;;;;;;;;;;;;;8.33;47.01;101275.16;4965321;27;98252;-73
2024/03/19 05:51:09;;;;;;;;;;;;;;;8.37;47.09;101281.78;4995226;27;99633;-71
2024/03/19 05:53:35;;;;;;;;;;;;;;;8.40;47.46;101278.59;4979813;27;98253;-73
2024/03/19 05:56:01;;;;;;;;;;;;;;;8.44;47.30;101278.94;4994015;27;99474;-73
2024/03/19 05:58:28;;;;;;;;;;;;;;;8.47;47.03;101271.25;4996585;27;98074;-71
2024/03/19 06:00:58;;;;;;;;;;;;;;;8.51;47.16;101275.09;4966858;27;98148;-73
2024/03/19 06:03:24;;;;;;;;;;;;;;;8.55;47.03;101272.75;4982822;27;101685;-71
2024/03/19 06:06:01;;;;;;;;;;;;;;;8.59;46.98;101272.06;4967787;27;98332;-71
2024/03/19 06:08:27;;;;;;;;;;;;;;;8.63;47.40;101267.03;4970246;27;97826;-73
2024/03/19 06:10:54;;;;;;;;;;;;;;;8.68;47.13;101271.69;4980233;27;119044;-73
2024/03/19 06:13:20;;;;;;;;;;;;;;;8.72;47.11;101272.88;4965058;27;98204;-71
2024/03/19 06:15:46;;;;;;;;;;;;;;;8.77;46.82;101271.13;4978488;28;98085;-71
2024/03/19 06:18:12;;;;;;;;;;;;;;;8.80;47.28;101267.13;4958492;27;99485;-73
2024/03/19 06:20:38;;;;;;;;;;;;;;;8.87;47.21;101267.81;4967498;27;99043;-71
2024/03/19 06:23:04;;;;;;;;;;;;;;;8.96;47.38;101268.25;4982099;27;98479;-71
2024/03/19 06:25:30;;;;;;;;;;;;;;;9.10;47.18;101266.97;4976289;27;110907;-70
2024/03/19 06:27:56;;;;;;;;;;;;;;;9.21;46.89;101268.00;5001786;27;99878;-71
2024/03/19 06:30:22;;;;;;;;;;;;;;;9.31;47.26;101266.31;5003738;27;128219;-73
2024/03/19 06:32:48;;;;;;;;;;;;;;;9.44;46.52;101267.91;4985912;27;98533;-73
2024/03/19 06:35:14;;;;;;;;;;;;;;;9.56;46.94;101262.47;4962729;27;125144;-73
2024/03/19 06:37:41;;;;;;;;;;;;;;;9.65;46.58;101262.91;4968281;27;98356;-72
2024/03/19 06:40:08;;;;;;;;;;;;;;;9.71;47.21;101267.31;4984428;27;113830;-73
2024/03/19 06:42:39;;;;;;;;;;;;;;;9.81;46.94;101272.88;4981513;27;98285;-71
2024/03/19 06:45:08;;;;;;;;;;;;;;;9.90;46.57;101278.69;4970543;27;98124;-70
2024/03/19 06:47:35;;;;;;;;;;;;;;;9.97;46.42;101279.34;4997349;27;101350;-70
2024/03/19 06:50:06;;;;;;;;;;;;;;;10.06;46.85;101286.78;4983065;27;99654;-73
2024/03/19 06:52:33;;;;;;;;;;;;;;;10.15;46.83;101281.81;4985530;27;98169;-73
2024/03/19 06:54:59;;;;;;;;;;;;;;;10.26;46.58;101290.91;4973851;27;98352;-71
2024/03/19 06:57:26;;;;;;;;;;;;;;;10.36;46.51;101284.84;4979166;27;98391;-72
2024/03/19 06:59:52;;;;;;;;;;;;;;;10.47;46.18;101290.16;4986217;27;98912;-73
2024/03/19 07:02:18;;;;;;;;;;;;;;;10.55;46.68;101289.75;4965556;27;98306;-73
2024/03/19 07:04:45;;;;;;;;;;;;;;;10.66;46.07;101303.38;4978096;27;98205;-73
2024/03/19 07:07:13;;;;;;;;;;;;;;;10.75;46.57;101300.00;4959368;27;98954;-71
2024/03/19 07:09:42;;;;;;;;;;;;;;;10.82;46.31;101297.13;4978578;27;98903;-72
2024/03/19 07:12:08;;;;;;;;;;;;;;;10.91;46.54;101300.22;4984052;27;98101;-73
2024/03/19 07:14:36;;;;;;;;;;;;;;;10.99;46.17;101297.91;4982701;27;98384;-71
2024/03/19 07:17:17;;;;;;;;;;;;;;;11.08;46.13;101295.56;4983741;27;98469;-71
2024/03/19 07:19:43;;;;;;;;;;;;;;;11.20;46.00;101298.16;5000011;27;99078;-70
2024/03/19 07:22:10;;;;;;;;;;;;;;;11.31;46.46;101299.91;4979663;27;120626;-71
2024/03/19 07:24:36;;;;;;;;;;;;;;;11.41;46.24;101296.53;4969239;27;98168;-70
2024/03/19 07:27:02;;;;;;;;;;;;;;;11.52;46.03;101299.09;4965714;28;98527;-73
2024/03/19 07:29:28;;;;;;;;;;;;;;;11.65;46.06;101299.75;4948263;27;115151;-73
2024/03/19 07:31:54;;;;;;;;;;;;;;;11.78;45.99;101300.16;4942799;28;105713;-70
2024/03/19 07:34:21;;;;;;;;;;;;;;;11.91;45.92;101307.09;4971581;27;97965;-70
2024/03/19 07:36:47;;;;;;;;;;;;;;;12.03;45.83;101302.31;4967084;28;98514;-73
2024/03/19 07:39:13;;;;;;;;;;;;;;;12.25;45.88;101299.53;4963834;27;98303;-73
2024/03/19 07:41:39;;;;;;;;;;;;;;;12.50;45.45;101307.03;4954571;27;99392;-73
2024/03/19 07:44:06;;;;;;;;;;;;;;;12.75;45.32;101302.84;4969534;27;98630;-70
2024/03/19 07:46:31;;;;;;;;;;;;;;;13.02;45.07;101295.44;4956217;27;98237;-73
2024/03/19 07:48:58;;;;;;;;;;;;;;;13.27;44.94;101293.94;4970934;27;128396;-72
2024/03/19 07:51:26;;;;;;;;;;;;;;;13.59;44.89;101298.38;4957259;27;98121;-70
2024/03/19 07:53:52;;;;;;;;;;;;;;;14.03;44.51;101295.16;4972388;27;98005;-70
2024/03/19 07:56:18;;;;;;;;;;;;;;;14.40;44.48;101287.59;4968928;27;98066;-70
2024/03/19 07:58:46;;;;;;;;;;;;;;;14.78;44.09;101284.56;4966107;27;101464;-73
2024/03/19 08:01:13;;;;;;;;;;;;;;;15.26;44.27;101287.66;4969396;27;97988;-73
2024/03/19 08:03:39;;;;;;;;;;;;;;;15.78;43.65;101289.00;4948764;27;98257;-73
2024/03/19 08:06:05;;;;;;;;;;;;;;;16.29;43.46;101294.88;4964508;27;98199;-73
2024/03/19 08:08:32;;;;;;;;;;;;;;;16.89;43.08;101294.56;4974893;27;100724;-73
2024/03/19 08:10:58;;;;;;;;;;;;;;;17.72;42.48;101298.66;4997205;27;98510;-73
2024/03/19 08:13:28;;;;;;;;;;;;;;;18.90;41.84;101292.06;4974286;27;98181;-73
2024/03/19 08:15:54;;;;;;;;;;;;;;;20.55;40.75;101293.53;4969042;27;98007;-73
2024/03/19 08:18:21;;;;;;;;;;;;;;;22.18;39.76;101287.88;4977869;27;98263;-73
2024/03/19 08:20:48;;;;;;;;;;;;;;;23.60;38.91;101292.09;4970824;27;98163;-71
2024/03/19 08:23:15;;;;;;;;;;;;;;;25.13;38.23;101310.47;4987586;27;98092;-71
2024/03/19 08:25:42;;;;;;;;;;;;;;;26.73;37.63;101305.97;4979603;27;99735;-71
2024/03/19 08:28:08;;;;;;;;;;;;;;;28.14;37.00;101308.72;4983909;27;100062;-71
2024/03/19 08:30:35;;;;;;;;;;;;;;;29.18;37.11;101310.50;4970598;27;98127;-73
2024/03/19 08:33:02;;;;;;;;;;;;;;;30.13;36.64;101312.94;4990748;27;98718;-71
2024/03/19 08:35:33;;;;;;;;;;;;;;;31.04;36.58;101313.38;4969261;27;98104;-71
2024/03/19 08:38:02;;;;;;;;;;;;;;;31.61;36.58;101312.94;4975465;27;98127;-73
2024/03/19 08:40:29;;;;;;;;;;;;;;;32.07;36.51;101315.09;4988324;27;99076;-71
2024/03/19 08:42:56;;;;;;;;;;;;;;;32.48;36.91;101315.63;4984905;27;98112;-71
2024/03/19 08:45:26;;;;;;;;;;;;;;;32.71;37.17;101313.25;4983598;27;98642;-71
2024/03/19 08:47:52;;;;;;;;;;;;;;;32.70;37.72;101311.66;4976754;27;98474;-71
2024/03/19 08:50:19;;;;;;;;;;;;;;;32.64;37.54;101310.44;4970909;27;98159;-73
2024/03/19 08:52:46;;;;;;;;;;;;;;;32.49;38.08;101314.41;4988907;27;98514;-74
2024/03/19 08:55:12;;;;;;;;;;;;;;;32.31;38.82;101302.44;4986970;27;98840;-71
2024/03/19 08:57:42;;;;;;;;;;;;;;;32.14;38.79;101312.34;4970891;27;101775;-73
2024/03/19 09:00:15;;;;;;;;;;;;;;;31.95;39.60;101305.94;4971047;27;98364;-72
2024/03/19 09:02:42;;;;;;;;;;;;;;;31.80;39.51;101301.50;4976449;27;97890;-71
2024/03/19 09:05:09;;;;;;;;;;;;;;;31.71;40.18;101301.03;4970087;27;99758;-74
2024/03/19 09:07:38;;;;;;;;;;;;;;;31.70;40.04;101305.03;4983648;27;98284;-71
2024/03/19 09:10:04;;;;;;;;;;;;;;;31.73;40.40;101307.81;4976046;27;98037;-72
2024/03/19 09:12:31;;;;;;;;;;;;;;;31.80;40.29;101306.28;4970724;27;98114;-71
2024/03/19 09:14:57;;;;;;;;;;;;;;;31.88;40.31;101305.91;4970163;27;100343;-72
2024/03/19 09:17:24;;;;;;;;;;;;;;;31.99;40.26;101306.75;4991544;27;98135;-74
2024/03/19 09:19:51;;;;;;;;;;;;;;;32.15;40.39;101311.19;4987000;27;99901;-74
2024/03/19 09:22:18;;;;;;;;;;;;;;;32.31;40.19;101306.03;4999715;27;98176;-71
2024/03/19 09:24:44;;;;;;;;;;;;;;;32.49;40.71;101315.22;4982685;27;98682;-71
2024/03/19 09:27:14;;;;;;;;;;;;;;;32.68;40.28;101297.28;4981948;27;98014;-74
2024/03/19 09:29:40;;;;;;;;;;;;;;;32.87;40.38;101298.88;4984241;27;98212;-74
2024/03/19 09:32:07;;;;;;;;;;;;;;;33.08;40.80;101305.66;4978158;27;98226;-71
2024/03/19 09:34:34;;;;;;;;;;;;;;;33.27;40.67;101296.81;4967340;27;97948;-74
2024/03/19 09:37:00;;;;;;;;;;;;;;;33.46;40.36;101307.56;4983746;27;98112;-71
2024/03/19 09:39:27;;;;;;;;;;;;;;;33.66;40.71;101304.31;4969489;27;98553;-74
2024/03/19 09:42:28;;;;;;;;;;;;;;;33.85;40.82;101301.00;4974807;27;98214;-71
2024/03/19 09:44:55;;;;;;;;;;;;;;;34.10;40.69;101295.28;4973235;27;98023;-68
2024/03/19 09:47:22;;;;;;;;;;;;;;;34.31;40.26;101282.38;4976390;27;98365;-70
2024/03/19 09:49:51;;;;;;;;;;;;;;;34.54;40.51;101284.63;4989056;27;98468;-69
2024/03/19 09:52:18;;;;;;;;;;;;;;;34.72;40.47;101290.06;4964120;27;99287;-68
2024/03/19 09:54:45;;;;;;;;;;;;;;;34.83;40.45;101293.56;4966841;27;98330;-71
2024/03/19 09:57:17;;;;;;;;;;;;;;;34.90;40.51;101296.31;4961306;27;98115;-71
2024/03/19 09:59:45;;;;;;;;;;;;;;;34.98;40.40;101292.22;4984532;27;99075;-71
2024/03/19 10:02:18;;;;;;;;;;;;;;;35.08;40.52;101288.53;4981606;27;98620;-71
2024/03/19 10:04:48;;;;;;;;;;;;;;;35.19;40.20;101277.22;4989535;27;99614;-68
2024/03/19 10:07:15;;;;;;;;;;;;;;;35.34;40.36;101286.25;4982983;27;98170;-69
2024/03/19 10:09:45;;;;;;;;;;;;;;;35.50;40.15;101280.88;4961174;27;98149;-72
2024/03/19 10:12:12;;;;;;;;;;;;;;;35.71;40.20;101273.41;4962190;27;98871;-69
2024/03/19 10:14:39;;;;;;;;;;;;;;;35.91;39.92;101274.31;5007224;27;98686;-72
2024/03/19 10:17:09;;;;;;;;;;;;;;;36.09;39.82;101274.09;4965284;27;98410;-72
2024/03/19 10:19:36;;;;;;;;;;;;;;;36.27;39.61;101273.78;4983373;27;98664;-72
2024/03/19 10:22:03;;;;;;;;;;;;;;;36.44;39.63;101271.94;4969973;27;98213;-72
2024/03/19 10:24:29;;;;;;;;;;;;;;;36.64;39.78;101264.38;4992267;27;98654;-69
2024/03/19 10:26:56;;;;;;;;;;;;;;;36.79;39.79;101267.72;4982991;27;98299;-69
2024/03/19 10:29:22;;;;;;;;;;;;;;;36.93;39.16;101261.81;4977716;27;98189;-71
2024/03/19 10:31:50;;;;;;;;;;;;;;;37.04;39.12;101262.44;4966310;27;98155;-72
2024/03/19 10:34:21;;;;;;;;;;;;;;;37.16;39.31;101263.81;4986775;27;99682;-69
2024/03/19 10:36:49;;;;;;;;;;;;;;;37.23;39.51;101260.09;4964377;27;98346;-69
2024/03/19 10:39:16;;;;;;;;;;;;;;;37.31;39.16;101262.31;4966848;27;98104;-71
2024/03/19 10:41:46;;;;;;;;;;;;;;;37.46;39.21;101260.03;4971573;27;98284;-69
2024/03/19 10:44:16;;;;;;;;;;;;;;;37.64;39.13;101264.47;4985085;27;97993;-72
2024/03/19 10:46:44;;;;;;;;;;;;;;;37.87;39.56;101266.34;4992270;27;98435;-69
2024/03/19 10:49:17;;;;;;;;;;;;;;;38.12;38.93;101246.88;4986545;27;98041;-69
2024/03/19 10:52:02;;;;;;;;;;;;;;;38.28;38.99;101251.72;4982788;27;98683;-68
2024/03/19 10:54:31;;;;;;;;;;;;;;;38.44;38.69;101253.78;5001884;27;99001;-71
2024/03/19 10:56:57;;;;;;;;;;;;;;;38.59;38.74;101257.00;5012741;27;98850;-72
2024/03/19 10:59:34;;;;;;;;;;;;;;;38.69;38.94;101258.75;4998771;27;98289;-69
2024/03/19 11:02:04;;;;;;;;;;;;;;;38.67;38.82;101250.72;4983253;27;113847;-69
2024/03/19 11:04:31;;;;;;;;;;;;;;;38.69;38.89;101251.09;4966506;27;99069;-69
2024/03/19 11:07:01;;;;;;;;;;;;;;;38.83;38.66;101237.88;4963029;27;98316;-69
2024/03/19 11:09:28;;;;;;;;;;;;;;;39.06;38.51;101239.66;4981884;27;98730;-69
2024/03/19 11:12:04;;;;;;;;;;;;;;;39.40;38.07;101244.72;4966220;27;98242;-68
2024/03/19 11:14:32;;;;;;;;;;;;;;;39.62;38.08;101231.56;4966145;27;99048;-69
2024/03/19 11:16:58;;;;;;;;;;;;;;;39.65;38.17;101224.22;4958532;27;99001;-72
2024/03/19 11:19:28;;;;;;;;;;;;;;;39.63;38.18;101235.16;4980360;27;98260;-69
2024/03/19 11:21:58;;;;;;;;;;;;;;;39.51;38.36;101223.44;4984704;27;98267;-69
2024/03/19 11:24:36;;;;;;;;;;;;;;;39.38;38.52;101228.28;4965860;27;117830;-69
2024/03/19 11:27:03;;;;;;;;;;;;;;;39.07;38.58;101227.97;5003821;27;98288;-69
2024/03/19 11:29:37;;;;;;;;;;;;;;;38.83;39.01;101220.97;4966436;27;98871;-69
2024/03/19 11:32:07;;;;;;;;;;;;;;;38.75;39.18;101221.16;4981460;27;98324;-68
2024/03/19 11:34:34;;;;;;;;;;;;;;;38.54;39.30;101216.09;4983173;27;99404;-72
2024/03/19 11:37:01;;;;;;;;;;;;;;;38.34;39.13;101215.44;4971342;27;99994;-68
2024/03/19 11:39:28;;;;;;;;;;;;;;;38.16;39.12;101215.84;4984818;27;98018;-69
2024/03/19 11:41:55;;;;;;;;;;;;;;;38.01;39.43;101216.22;4988965;27;100195;-71
2024/03/19 11:44:22;;;;;;;;;;;;;;;37.94;39.35;101218.41;4972336;27;100236;-68
2024/03/19 11:46:52;;;;;;;;;;;;;;;37.79;39.23;101217.94;4974381;27;98829;-68
2024/03/19 11:49:29;;;;;;;;;;;;;;;37.72;39.60;101212.47;4978461;27;98149;-68
2024/03/19 11:52:05;;;;;;;;;;;;;;;37.40;39.50;101202.72;4986834;27;97975;-69
2024/03/19 11:54:40;;;;;;;;;;;;;;;37.12;39.75;101200.53;4986640;27;98063;-69
2024/03/19 11:57:07;;;;;;;;;;;;;;;36.94;39.70;101210.09;4988218;27;98240;-69
2024/03/19 11:59:34;;;;;;;;;;;;;;;36.89;39.81;101201.34;4984848;27;98108;-68
2024/03/19 12:02:01;;;;;;;;;;;;;;;36.69;39.99;101196.50;4977167;27;98411;-68
2024/03/19 12:04:29;;;;;;;;;;;;;;;36.61;39.77;101195.84;4969645;27;98861;-69
2024/03/19 12:06:56;;;;;;;;;;;;;;;36.51;39.99;101190.44;4981350;27;99938;-69
2024/03/19 12:09:25;;;;;;;;;;;;;;;36.37;40.10;101188.66;4975742;27;97958;-71
2024/03/19 12:11:52;;;;;;;;;;;;;;;36.08;40.13;101177.94;4996743;27;98073;-68
2024/03/19 12:14:23;;;;;;;;;;;;;;;35.85;40.49;101183.50;5007658;27;98644;-71
2024/03/19 12:16:50;;;;;;;;;;;;;;;35.72;40.44;101182.47;4991158;27;98554;-71
2024/03/19 12:19:19;;;;;;;;;;;;;;;35.52;40.25;101173.97;4983628;27;97976;-71
2024/03/19 12:21:50;;;;;;;;;;;;;;;35.32;40.40;101173.81;5004199;27;98339;-69
2024/03/19 12:24:20;;;;;;;;;;;;;;;35.17;40.45;101174.00;4986209;27;98934;-68
2024/03/19 12:26:50;;;;;;;;;;;;;;;35.00;40.58;101177.03;4966737;27;98227;-71
2024/03/19 12:29:16;;;;;;;;;;;;;;;34.88;40.56;101161.53;4974617;27;98238;-69
2024/03/19 12:32:04;;;;;;;;;;;;;;;34.67;40.64;101157.78;5004642;27;98358;-71
2024/03/19 12:37:18;;;;;;;;;;;;;;;34.36;40.56;101176.44;4979714;27;99541;-71
2024/03/19 12:39:44;;;;;;;;;;;;;;;34.26;40.89;101170.94;4983216;27;98058;-71
2024/03/19 12:42:11;;;;;;;;;;;;;;;34.17;41.04;101166.63;4982446;27;99060;-70
2024/03/19 12:44:42;;;;;;;;;;;;;;;34.08;40.67;101165.53;4989168;27;98382;-69